Time;durP1;ratioP1;P1;durP2;ratioP2;P2;SDS_P1;SDS_P2;PMS_P1;PMS_P2;Temp;Humidity;BMP_temperature;BMP_pressure;BME280_temperature;BME280_humidity;BME280_pressure;Samples;Min_cycle;Max_cycle;Signal;HPM_P1;HPM_P2
2023/03/01 00:01:23;;;;;;;20.50;15.80;;;1.80;96.70;;;;;;4995955;28;20495;-70
2023/03/01 00:03:49;;;;;;;19.58;14.90;;;1.80;96.80;;;;;;4979395;28;20522;-70
2023/03/01 00:06:15;;;;;;;22.48;16.98;;;1.80;96.90;;;;;;4995689;28;20499;-70
2023/03/01 00:08:41;;;;;;;22.35;17.95;;;1.80;96.90;;;;;;4996598;28;20034;-70
2023/03/01 00:11:28;;;;;;;19.45;16.60;;;1.70;97.30;;;;;;4996108;28;20038;-70
2023/03/01 00:13:56;;;;;;;20.38;16.63;;;1.70;97.60;;;;;;4979661;28;20034;-70
2023/03/01 00:16:26;;;;;;;19.70;16.00;;;1.60;97.60;;;;;;4995581;28;20080;-70
2023/03/01 00:18:51;;;;;;;19.05;15.93;;;1.60;97.60;;;;;;4995861;28;20078;-70
2023/03/01 00:21:19;;;;;;;19.95;16.27;;;1.60;97.60;;;;;;4995886;28;20562;-70
2023/03/01 00:23:45;;;;;;;20.45;17.13;;;1.60;97.70;;;;;;4979312;28;20046;-70
2023/03/01 00:26:13;;;;;;;27.77;18.70;;;1.60;97.90;;;;;;4995307;28;20038;-70
2023/03/01 00:28:38;;;;;;;23.35;17.42;;;1.60;98.20;;;;;;4995779;28;20415;-70
2023/03/01 00:31:10;;;;;;;23.90;17.83;;;1.50;98.10;;;;;;4995350;28;20541;-70
2023/03/01 00:33:35;;;;;;;21.15;16.23;;;1.60;98.10;;;;;;4995717;28;20038;-70
2023/03/01 00:36:02;;;;;;;26.33;18.45;;;1.60;98.30;;;;;;4995281;28;20431;-70
2023/03/01 00:38:28;;;;;;;23.45;17.60;;;1.60;98.40;;;;;;4995215;28;20038;-70
2023/03/01 00:40:53;;;;;;;29.25;18.60;;;1.60;98.60;;;;;;4995270;28;20046;-70
2023/03/01 00:43:19;;;;;;;33.08;20.05;;;1.60;98.80;;;;;;4995169;28;20044;-70
2023/03/01 00:45:45;;;;;;;36.17;21.00;;;1.60;98.90;;;;;;4994864;28;20038;-70
2023/03/01 00:48:10;;;;;;;30.65;21.00;;;1.60;99.10;;;;;;4995315;28;20030;-70
2023/03/01 00:50:36;;;;;;;32.88;22.05;;;1.60;99.30;;;;;;4979085;28;20499;-70
2023/03/01 00:53:04;;;;;;;36.55;22.95;;;1.70;99.50;;;;;;4995259;28;20117;-70
2023/03/01 00:55:30;;;;;;;47.25;24.65;;;1.70;99.60;;;;;;4994977;28;20043;-70
2023/03/01 00:57:56;;;;;;;52.35;26.02;;;1.70;99.90;;;;;;4994564;28;20081;-70
2023/03/01 01:00:21;;;;;;;40.65;24.20;;;1.70;99.90;;;;;;4994232;28;20042;-70
2023/03/01 01:02:47;;;;;;;41.45;23.23;;;1.70;99.90;;;;;;4994824;28;20044;-70
2023/03/01 01:05:13;;;;;;;39.15;21.45;;;1.70;99.90;;;;;;4994772;28;20038;-70
2023/03/01 01:07:39;;;;;;;40.85;23.15;;;1.70;99.90;;;;;;4994650;28;20049;-70
2023/03/01 01:10:05;;;;;;;38.67;23.58;;;1.70;99.90;;;;;;4994699;28;20038;-70
2023/03/01 01:12:32;;;;;;;40.75;25.48;;;1.70;99.90;;;;;;4994631;28;20035;-70
2023/03/01 01:14:57;;;;;;;36.05;23.25;;;1.70;99.90;;;;;;4994553;28;20041;-70
2023/03/01 01:17:23;;;;;;;39.28;23.88;;;1.70;99.90;;;;;;4994513;28;20038;-70
2023/03/01 01:19:49;;;;;;;59.80;24.98;;;1.70;99.90;;;;;;4994375;28;20050;-70
2023/03/01 01:22:14;;;;;;;42.40;24.00;;;1.60;99.90;;;;;;4978291;28;20477;-70
2023/03/01 01:24:40;;;;;;;51.50;26.65;;;1.60;99.90;;;;;;4978452;28;20067;-70
2023/03/01 01:27:07;;;;;;;45.03;27.40;;;1.60;99.90;;;;;;4978082;28;20502;-70
2023/03/01 01:29:32;;;;;;;139.52;30.08;;;1.60;99.90;;;;;;4994608;28;20031;-70
2023/03/01 01:31:58;;;;;;;144.43;30.73;;;1.60;99.90;;;;;;4994253;28;20517;-70
2023/03/01 01:34:24;;;;;;;118.28;27.20;;;1.50;99.90;;;;;;4978241;28;20042;-70
2023/03/01 01:36:53;;;;;;;131.50;26.80;;;1.50;99.90;;;;;;4994156;28;20042;-70
2023/03/01 01:39:20;;;;;;;210.05;28.70;;;1.50;99.90;;;;;;4977962;28;20060;-70
2023/03/01 01:41:46;;;;;;;178.98;27.55;;;1.50;99.90;;;;;;4977920;28;20053;-70
2023/03/01 01:44:12;;;;;;;303.92;31.77;;;1.40;99.90;;;;;;4977864;28;20049;-70
2023/03/01 01:46:40;;;;;;;364.15;31.13;;;1.40;99.90;;;;;;4993741;28;20043;-70
2023/03/01 01:49:29;;;;;;;362.83;32.50;;;1.40;99.90;;;;;;4994197;28;20479;-70
2023/03/01 01:52:34;;;;;;;412.33;33.75;;;1.40;99.90;;;;;;4981877;28;20042;-70
2023/03/01 01:55:08;;;;;;;261.08;28.95;;;1.30;99.90;;;;;;4993921;28;20388;-70
2023/03/01 01:57:37;;;;;;;383.70;29.02;;;1.30;99.90;;;;;;4977557;28;20042;-70
2023/03/01 02:00:10;;;;;;;449.33;32.90;;;1.20;99.90;;;;;;4993956;28;20137;-70
2023/03/01 02:02:37;;;;;;;291.20;27.63;;;1.20;99.90;;;;;;4993995;28;20047;-70
2023/03/01 02:05:12;;;;;;;240.18;26.23;;;1.10;99.90;;;;;;4993896;28;20046;-70
2023/03/01 02:07:39;;;;;;;266.98;25.80;;;1.10;99.90;;;;;;4977277;28;20085;-70
2023/03/01 02:10:06;;;;;;;328.08;27.40;;;1.00;99.90;;;;;;4977258;28;20518;-70
2023/03/01 02:12:32;;;;;;;302.98;26.35;;;0.90;99.90;;;;;;4993525;28;20045;-70
2023/03/01 02:14:57;;;;;;;248.18;24.52;;;0.90;99.90;;;;;;4993750;28;20042;-70
2023/03/01 02:17:23;;;;;;;250.93;23.83;;;0.80;99.90;;;;;;4993613;28;20399;-70
2023/03/01 02:20:01;;;;;;;300.67;24.20;;;0.80;99.90;;;;;;4993379;28;20078;-70
2023/03/01 02:22:32;;;;;;;213.15;22.23;;;0.70;99.90;;;;;;4993603;28;20046;-70
2023/03/01 02:25:18;;;;;;;120.63;19.40;;;0.60;99.90;;;;;;4993281;28;20077;-70
2023/03/01 02:28:05;;;;;;;117.07;19.80;;;0.60;99.90;;;;;;4993070;28;20046;-70
2023/03/01 02:30:32;;;;;;;40.15;16.30;;;0.50;99.90;;;;;;4977104;28;20046;-70
2023/03/01 02:33:04;;;;;;;47.08;16.23;;;0.40;99.90;;;;;;4993140;28;20085;-70
2023/03/01 02:35:38;;;;;;;24.92;16.45;;;0.30;99.90;;;;;;4976985;28;20552;-70
2023/03/01 02:38:08;;;;;;;18.08;14.85;;;0.30;99.90;;;;;;4976934;28;20038;-70
2023/03/01 02:40:35;;;;;;;16.40;14.70;;;0.30;99.90;;;;;;4992983;28;20117;-70
2023/03/01 02:43:06;;;;;;;17.75;15.43;;;0.30;99.90;;;;;;4992982;28;20046;-70
2023/03/01 02:45:31;;;;;;;16.30;14.55;;;0.30;99.90;;;;;;4993192;28;20511;-70
2023/03/01 02:47:57;;;;;;;18.33;15.63;;;0.30;99.90;;;;;;4993006;28;20081;-70
2023/03/01 02:50:29;;;;;;;17.13;15.20;;;0.30;99.90;;;;;;4993094;28;20122;-70
2023/03/01 02:53:04;;;;;;;17.00;13.88;;;0.20;99.90;;;;;;4992824;28;20038;-70
2023/03/01 02:55:29;;;;;;;16.88;13.82;;;0.20;99.90;;;;;;4992887;28;20038;-70
2023/03/01 02:57:56;;;;;;;15.05;13.50;;;0.20;99.90;;;;;;4993178;28;20050;-70
2023/03/01 03:00:26;;;;;;;15.63;14.02;;;0.20;99.90;;;;;;4992997;28;20104;-70
2023/03/01 03:02:53;;;;;;;15.95;14.25;;;0.10;99.90;;;;;;4992738;28;20045;-70
2023/03/01 03:05:22;;;;;;;16.08;14.45;;;0.10;99.90;;;;;;4976588;28;20042;-70
2023/03/01 03:07:48;;;;;;;15.40;13.80;;;0.00;99.90;;;;;;4992510;28;20045;-70
2023/03/01 03:10:21;;;;;;;16.58;14.52;;;-0.10;99.90;;;;;;4976438;28;20038;-70
2023/03/01 03:12:57;;;;;;;16.42;14.60;;;-0.10;99.90;;;;;;4992865;28;20039;-70
2023/03/01 03:15:24;;;;;;;16.35;14.13;;;-0.20;99.90;;;;;;4992768;28;20038;-70
2023/03/01 03:17:51;;;;;;;15.93;14.23;;;-0.20;99.90;;;;;;4992546;28;20049;-70
2023/03/01 03:20:21;;;;;;;15.35;13.75;;;-0.30;99.90;;;;;;4976634;28;20057;-70
2023/03/01 03:22:50;;;;;;;15.73;13.93;;;-0.20;99.90;;;;;;4992253;28;20513;-70
2023/03/01 03:25:16;;;;;;;16.27;14.57;;;-0.30;99.90;;;;;;4976367;28;20034;-70
2023/03/01 03:27:44;;;;;;;16.30;14.60;;;-0.30;99.90;;;;;;4993017;28;20050;-70
2023/03/01 03:30:13;;;;;;;14.90;13.40;;;-0.30;99.90;;;;;;4992452;28;20035;-70
2023/03/01 03:32:51;;;;;;;16.45;14.00;;;-0.40;99.90;;;;;;4992434;28;20052;-70
2023/03/01 03:35:29;;;;;;;15.45;13.82;;;-0.30;99.90;;;;;;4976347;28;20120;-70
2023/03/01 03:38:03;;;;;;;15.55;13.38;;;-0.30;99.90;;;;;;4976424;28;20042;-70
2023/03/01 03:40:35;;;;;;;15.32;13.52;;;-0.40;99.90;;;;;;4976199;28;20035;-70
2023/03/01 03:43:03;;;;;;;18.42;14.30;;;-0.40;99.90;;;;;;4992359;28;20038;-70
2023/03/01 03:45:29;;;;;;;15.48;13.85;;;-0.40;99.90;;;;;;4976401;28;20049;-70
2023/03/01 03:47:55;;;;;;;14.77;13.05;;;-0.50;99.90;;;;;;4992333;28;20047;-70
2023/03/01 03:50:20;;;;;;;14.38;12.88;;;-0.50;99.90;;;;;;4993016;28;20042;-70
2023/03/01 03:52:47;;;;;;;15.70;13.90;;;-0.50;99.90;;;;;;4976511;28;20046;-70
2023/03/01 03:55:13;;;;;;;14.35;12.85;;;-0.50;99.90;;;;;;4992482;28;20069;-70
2023/03/01 03:57:40;;;;;;;14.05;12.32;;;-0.40;99.90;;;;;;4992172;28;20511;-70
2023/03/01 04:00:15;;;;;;;14.65;13.10;;;-0.50;99.90;;;;;;4992182;28;20042;-70
2023/03/01 04:02:41;;;;;;;13.80;12.30;;;-0.50;99.90;;;;;;4976039;28;20046;-70
2023/03/01 04:05:09;;;;;;;14.00;12.50;;;-0.50;99.90;;;;;;4975945;28;20046;-70
2023/03/01 04:07:35;;;;;;;13.43;12.02;;;-0.50;99.90;;;;;;4991943;28;20065;-70
2023/03/01 04:10:03;;;;;;;13.18;11.88;;;-0.50;99.90;;;;;;4992351;28;20568;-70
2023/03/01 04:12:29;;;;;;;13.95;12.45;;;-0.50;99.90;;;;;;4992368;28;20038;-70
2023/03/01 04:14:54;;;;;;;11.55;10.45;;;-0.50;99.90;;;;;;4992081;28;20519;-70
2023/03/01 04:17:20;;;;;;;12.88;11.55;;;-0.50;99.90;;;;;;4991936;28;20043;-70
2023/03/01 04:19:48;;;;;;;13.02;11.63;;;-0.50;99.90;;;;;;4992016;28;20057;-70
2023/03/01 04:22:18;;;;;;;12.75;11.45;;;-0.50;99.90;;;;;;4992009;28;20076;-70
2023/03/01 04:24:44;;;;;;;13.60;12.20;;;-0.50;99.90;;;;;;4975766;28;20038;-70
2023/03/01 04:27:11;;;;;;;13.70;11.80;;;-0.60;99.90;;;;;;4991933;28;20042;-70
2023/03/01 04:29:37;;;;;;;12.68;11.38;;;-0.50;99.90;;;;;;4992188;28;20137;-70
2023/03/01 04:32:02;;;;;;;12.98;11.40;;;-0.50;99.90;;;;;;4992088;28;20121;-70
2023/03/01 04:34:29;;;;;;;13.15;11.27;;;-0.60;99.90;;;;;;4977183;28;20554;-70
2023/03/01 04:36:55;;;;;;;12.75;11.45;;;-0.50;99.90;;;;;;4979035;28;20049;-70
2023/03/01 04:39:21;;;;;;;13.77;12.32;;;-0.60;99.90;;;;;;4979033;28;20046;-70
2023/03/01 04:41:47;;;;;;;14.38;11.98;;;-0.60;99.90;;;;;;4979235;28;20153;-70
2023/03/01 04:44:12;;;;;;;12.15;10.85;;;-0.60;99.90;;;;;;4979041;28;20463;-70
2023/03/01 04:46:38;;;;;;;13.20;11.80;;;-0.60;99.90;;;;;;4995056;28;20042;-70
2023/03/01 04:49:05;;;;;;;13.43;11.73;;;-0.60;99.90;;;;;;4995141;28;20403;-70
2023/03/01 04:51:32;;;;;;;12.93;11.52;;;-0.60;99.90;;;;;;4995050;28;20085;-70
2023/03/01 04:53:58;;;;;;;12.82;11.52;;;-0.60;99.90;;;;;;4995241;28;20519;-70
2023/03/01 04:56:23;;;;;;;11.90;10.63;;;-0.70;99.90;;;;;;4978655;28;20074;-70
2023/03/01 04:58:50;;;;;;;11.85;10.40;;;-0.70;99.90;;;;;;4994955;28;20038;-70
2023/03/01 05:01:19;;;;;;;12.20;10.82;;;-0.70;99.90;;;;;;4978618;28;20073;-70
2023/03/01 05:03:47;;;;;;;11.93;10.55;;;-0.70;99.90;;;;;;4994845;28;20038;-70
2023/03/01 05:06:14;;;;;;;12.10;10.77;;;-0.80;99.90;;;;;;4994835;28;20414;-70
2023/03/01 05:08:41;;;;;;;11.32;10.15;;;-0.70;99.90;;;;;;4994729;28;20049;-70
2023/03/01 05:11:08;;;;;;;11.60;10.00;;;-0.80;99.90;;;;;;4994700;28;20533;-70
2023/03/01 05:13:38;;;;;;;11.13;9.93;;;-0.80;99.90;;;;;;4994955;28;20169;-70
2023/03/01 05:16:05;;;;;;;10.93;9.63;;;-0.80;99.90;;;;;;4994601;28;20050;-70
2023/03/01 05:18:33;;;;;;;11.02;9.88;;;-0.90;99.90;;;;;;4978561;28;20157;-70
2023/03/01 05:21:17;;;;;;;12.00;9.63;;;-0.90;99.90;;;;;;4994564;28;20041;-70
2023/03/01 05:23:43;;;;;;;11.82;9.50;;;-0.80;99.90;;;;;;4978484;28;20043;-70
2023/03/01 05:26:09;;;;;;;10.77;9.65;;;-0.90;99.90;;;;;;4978346;28;20038;-70
2023/03/01 05:28:34;;;;;;;11.13;9.90;;;-0.90;99.90;;;;;;4994656;28;20521;-70
2023/03/01 05:31:00;;;;;;;12.13;10.43;;;-0.90;99.90;;;;;;4978149;28;20543;-70
2023/03/01 05:33:27;;;;;;;11.20;10.02;;;-0.90;99.90;;;;;;4978063;28;20041;-70
2023/03/01 05:35:54;;;;;;;14.95;11.15;;;-0.90;99.90;;;;;;4978041;28;20035;-70
2023/03/01 05:38:20;;;;;;;11.52;9.85;;;-0.90;99.90;;;;;;4994455;28;20498;-70
2023/03/01 05:40:47;;;;;;;12.35;10.15;;;-1.00;99.90;;;;;;4994164;28;20454;-70
2023/03/01 05:43:15;;;;;;;11.93;10.27;;;-1.00;99.90;;;;;;4994113;28;20034;-70
2023/03/01 05:45:41;;;;;;;12.80;10.93;;;-1.00;99.90;;;;;;4977451;28;20080;-70
2023/03/01 05:48:08;;;;;;;11.32;10.05;;;-1.00;99.90;;;;;;4977964;28;20066;-70
2023/03/01 05:50:36;;;;;;;13.38;11.23;;;-1.00;99.90;;;;;;4977777;28;20030;-70
2023/03/01 05:53:22;;;;;;;13.35;10.75;;;-1.00;99.90;;;;;;4993903;28;20076;-70
2023/03/01 05:55:49;;;;;;;13.15;11.30;;;-1.00;99.90;;;;;;4977514;28;20137;-70
2023/03/01 05:58:18;;;;;;;12.85;10.73;;;-1.10;99.90;;;;;;4977607;28;20042;-70
2023/03/01 06:00:46;;;;;;;14.45;10.57;;;-1.10;99.90;;;;;;4993733;28;20477;-70
2023/03/01 06:03:13;;;;;;;14.10;10.73;;;-1.10;99.90;;;;;;4993753;28;20044;-70
2023/03/01 06:05:40;;;;;;;13.32;11.07;;;-1.20;99.90;;;;;;4977409;28;20034;-70
2023/03/01 06:08:05;;;;;;;13.15;10.68;;;-1.20;99.90;;;;;;4977742;28;20046;-70
2023/03/01 06:10:31;;;;;;;12.27;10.93;;;-1.20;99.90;;;;;;4993814;28;20498;-70
2023/03/01 06:12:57;;;;;;;12.95;10.20;;;-1.20;99.90;;;;;;4977630;28;20488;-70
2023/03/01 06:15:23;;;;;;;11.35;10.02;;;-1.20;99.90;;;;;;4993579;28;20548;-71
2023/03/01 06:17:49;;;;;;;13.10;10.27;;;-1.10;99.90;;;;;;4993400;28;20046;-70
2023/03/01 06:20:23;;;;;;;11.98;9.77;;;-1.20;99.90;;;;;;4977268;28;20053;-70
2023/03/01 06:22:49;;;;;;;11.25;9.57;;;-1.10;99.90;;;;;;4993586;28;20526;-70
2023/03/01 06:25:18;;;;;;;14.38;10.55;;;-1.20;99.90;;;;;;4977107;28;20038;-71
2023/03/01 06:27:45;;;;;;;11.48;10.27;;;-1.10;99.90;;;;;;4976867;28;20388;-71
2023/03/01 06:30:13;;;;;;;14.13;10.65;;;-1.20;99.90;;;;;;4993237;28;20126;-71
2023/03/01 06:32:41;;;;;;;12.73;10.00;;;-1.10;99.90;;;;;;4993098;28;20053;-71
2023/03/01 06:35:08;;;;;;;11.15;9.70;;;-1.10;99.90;;;;;;4993380;28;20072;-71
2023/03/01 06:37:35;;;;;;;14.05;10.57;;;-1.10;99.90;;;;;;4993333;28;20133;-71
2023/03/01 06:40:06;;;;;;;10.98;9.88;;;-1.20;99.90;;;;;;4976901;28;20562;-71
2023/03/01 06:42:32;;;;;;;10.85;9.35;;;-1.20;99.90;;;;;;4993087;28;20038;-71
2023/03/01 06:44:57;;;;;;;9.85;8.80;;;-1.20;99.90;;;;;;4993189;28;20068;-70
2023/03/01 06:47:23;;;;;;;12.32;8.85;;;-1.20;99.90;;;;;;4992684;28;20522;-70
2023/03/01 06:49:49;;;;;;;11.90;9.90;;;-1.20;99.90;;;;;;4992886;28;20042;-70
2023/03/01 06:52:14;;;;;;;10.77;9.55;;;-1.20;99.90;;;;;;4993081;28;20080;-71
2023/03/01 06:54:40;;;;;;;12.27;10.93;;;-1.20;99.90;;;;;;4992818;28;20045;-71
2023/03/01 06:57:05;;;;;;;14.13;10.90;;;-1.30;99.90;;;;;;4991918;28;20046;-70
2023/03/01 06:59:31;;;;;;;13.07;10.88;;;-1.20;99.90;;;;;;4993021;28;20034;-70
2023/03/01 07:01:57;;;;;;;13.40;10.43;;;-1.20;99.90;;;;;;4992715;28;20515;-70
2023/03/01 07:04:22;;;;;;;13.80;10.85;;;-1.20;99.90;;;;;;4976562;28;20112;-70
2023/03/01 07:06:54;;;;;;;15.25;11.20;;;-1.20;99.90;;;;;;4992687;28;20038;-71
2023/03/01 07:09:23;;;;;;;13.68;11.35;;;-1.20;99.90;;;;;;4976587;28;20482;-70
2023/03/01 07:11:49;;;;;;;12.95;11.05;;;-1.10;99.90;;;;;;4992446;28;20085;-70
2023/03/01 07:14:15;;;;;;;15.48;11.68;;;-1.10;99.90;;;;;;4992342;28;20046;-70
2023/03/01 07:16:41;;;;;;;14.63;11.73;;;-1.10;99.90;;;;;;4992393;28;20054;-70
2023/03/01 07:19:06;;;;;;;13.60;11.82;;;-1.00;99.90;;;;;;4992922;28;20121;-70
2023/03/01 07:21:32;;;;;;;16.30;11.55;;;-1.00;99.90;;;;;;4992502;28;20046;-70
2023/03/01 07:23:57;;;;;;;17.52;12.50;;;-0.90;99.90;;;;;;4992449;28;20153;-70
2023/03/01 07:26:23;;;;;;;15.85;13.07;;;-0.90;99.90;;;;;;4992265;28;20045;-70
2023/03/01 07:28:49;;;;;;;17.17;13.13;;;-0.90;99.90;;;;;;4992403;28;20035;-70
2023/03/01 07:31:14;;;;;;;16.25;13.05;;;-0.80;99.90;;;;;;4992447;28;20072;-70
2023/03/01 07:33:40;;;;;;;16.83;13.60;;;-0.80;99.90;;;;;;4992367;28;20459;-70
2023/03/01 07:36:06;;;;;;;24.23;15.32;;;-0.70;99.90;;;;;;4992371;28;20049;-71
2023/03/01 07:38:32;;;;;;;20.77;15.95;;;-0.60;99.90;;;;;;4992608;28;20081;-70
2023/03/01 07:41:03;;;;;;;22.13;17.55;;;-0.50;99.90;;;;;;4992367;28;20477;-71
2023/03/01 07:43:29;;;;;;;24.42;17.63;;;-0.50;99.90;;;;;;4992801;28;20092;-70
2023/03/01 07:45:58;;;;;;;24.92;17.02;;;-0.40;99.90;;;;;;4992305;28;20080;-70
2023/03/01 07:48:24;;;;;;;22.92;15.68;;;-0.30;99.90;;;;;;4992397;28;20078;-70
2023/03/01 07:50:49;;;;;;;21.33;16.55;;;-0.30;99.90;;;;;;4992334;28;20074;-70
2023/03/01 07:53:15;;;;;;;23.58;15.90;;;-0.20;99.90;;;;;;4992245;28;20081;-71
2023/03/01 07:55:40;;;;;;;22.08;16.02;;;-0.10;99.90;;;;;;4992097;28;20042;-71
2023/03/01 07:58:06;;;;;;;20.85;15.80;;;-0.10;99.90;;;;;;4992434;28;20041;-70
2023/03/01 08:00:32;;;;;;;22.20;16.13;;;0.00;99.90;;;;;;4992411;28;20559;-70
2023/03/01 08:03:01;;;;;;;23.90;17.00;;;0.00;99.90;;;;;;4975902;28;20177;-70
2023/03/01 08:05:28;;;;;;;23.17;17.80;;;0.10;99.90;;;;;;4992159;28;20483;-70
2023/03/01 08:07:53;;;;;;;21.05;16.65;;;0.20;99.90;;;;;;4976569;28;20388;-70
2023/03/01 08:10:19;;;;;;;25.80;16.70;;;0.20;99.90;;;;;;4995785;28;20510;-70
2023/03/01 08:12:45;;;;;;;23.25;17.30;;;0.30;99.90;;;;;;4996016;28;20042;-70
2023/03/01 08:15:12;;;;;;;24.85;18.90;;;0.30;99.90;;;;;;4979754;28;20046;-70
2023/03/01 08:17:37;;;;;;;26.50;18.63;;;0.50;99.90;;;;;;4995603;28;20050;-74
2023/03/01 08:20:06;;;;;;;28.70;20.42;;;0.60;99.90;;;;;;4995618;28;20048;-69
2023/03/01 08:22:32;;;;;;;25.40;19.52;;;0.70;99.90;;;;;;4995613;28;20042;-69
2023/03/01 08:24:58;;;;;;;28.02;19.67;;;0.80;99.90;;;;;;4995586;28;20085;-69
2023/03/01 08:27:23;;;;;;;26.45;19.95;;;0.90;99.90;;;;;;4995461;28;20077;-69
2023/03/01 08:29:49;;;;;;;26.05;20.30;;;1.00;99.90;;;;;;4995613;28;20503;-69
2023/03/01 08:32:14;;;;;;;30.17;21.75;;;1.10;99.90;;;;;;4979205;28;20470;-69
2023/03/01 08:34:40;;;;;;;29.60;21.98;;;1.20;99.90;;;;;;4995399;28;20097;-69
2023/03/01 08:37:05;;;;;;;27.23;21.63;;;1.30;99.90;;;;;;4995361;28;20042;-69
2023/03/01 08:39:31;;;;;;;29.13;21.30;;;1.40;99.90;;;;;;4995132;28;20046;-70
2023/03/01 08:41:57;;;;;;;27.75;20.77;;;1.50;99.90;;;;;;4979707;28;20047;-67
2023/03/01 08:44:22;;;;;;;28.58;21.83;;;1.60;99.90;;;;;;4995512;28;20558;-67
2023/03/01 08:46:49;;;;;;;32.63;22.42;;;1.70;99.90;;;;;;4994964;28;20058;-67
2023/03/01 08:49:19;;;;;;;27.17;21.58;;;1.90;99.90;;;;;;4995382;28;20086;-67
2023/03/01 08:51:46;;;;;;;29.20;22.88;;;2.20;99.90;;;;;;4995029;28;20415;-67
2023/03/01 08:54:15;;;;;;;28.88;21.80;;;3.10;99.90;;;;;;4995014;28;20557;-67
2023/03/01 08:56:41;;;;;;;27.92;20.83;;;4.80;99.90;;;;;;4978721;28;20092;-68
2023/03/01 08:59:07;;;;;;;27.02;20.00;;;6.40;99.90;;;;;;4978993;28;20133;-68
2023/03/01 09:01:33;;;;;;;27.30;21.35;;;7.70;99.90;;;;;;4994819;28;20046;-68
2023/03/01 09:03:59;;;;;;;25.63;20.10;;;9.00;99.90;;;;;;4994868;28;20411;-68
2023/03/01 09:06:24;;;;;;;24.52;19.10;;;9.80;97.40;;;;;;4979266;28;20038;-67
2023/03/01 09:08:51;;;;;;;20.27;16.98;;;10.70;95.00;;;;;;4994800;28;20133;-68
2023/03/01 09:11:21;;;;;;;22.02;16.65;;;11.20;92.60;;;;;;4994763;28;20129;-68
2023/03/01 09:13:48;;;;;;;22.75;15.98;;;11.50;90.70;;;;;;4994975;28;20525;-67
2023/03/01 09:16:16;;;;;;;20.58;16.35;;;11.70;89.90;;;;;;4978378;28;20128;-68
2023/03/01 09:18:42;;;;;;;20.50;16.92;;;11.60;88.30;;;;;;4994589;28;20050;-67
2023/03/01 09:21:14;;;;;;;20.35;16.20;;;11.50;87.40;;;;;;4994782;28;20049;-68
2023/03/01 09:23:41;;;;;;;18.25;15.70;;;11.50;86.30;;;;;;4994798;28;20053;-68
2023/03/01 09:26:09;;;;;;;16.05;14.40;;;11.60;85.60;;;;;;4994314;28;20038;-67
2023/03/01 09:28:36;;;;;;;18.90;15.60;;;11.90;84.80;;;;;;4978547;28;20084;-67
2023/03/01 09:31:02;;;;;;;19.60;16.17;;;12.10;83.60;;;;;;4994361;28;20046;-68
2023/03/01 09:33:30;;;;;;;19.55;16.83;;;12.10;82.80;;;;;;4978161;28;20038;-68
2023/03/01 09:36:08;;;;;;;19.13;16.83;;;12.30;81.80;;;;;;4994453;28;20046;-68
2023/03/01 09:38:33;;;;;;;22.83;18.35;;;12.70;80.80;;;;;;4994243;28;20045;-68
2023/03/01 09:41:00;;;;;;;24.30;18.10;;;13.10;79.30;;;;;;4978163;28;20038;-68
2023/03/01 09:43:47;;;;;;;22.75;18.13;;;13.40;77.90;;;;;;4994412;28;20085;-68
2023/03/01 09:46:17;;;;;;;22.08;18.85;;;13.70;76.70;;;;;;4977692;28;20506;-68
2023/03/01 09:48:49;;;;;;;21.10;16.55;;;14.10;75.00;;;;;;4977836;28;20038;-68
2023/03/01 09:51:23;;;;;;;20.52;15.88;;;14.70;71.60;;;;;;4993977;28;20406;-68
2023/03/01 09:53:49;;;;;;;23.25;17.20;;;15.30;69.90;;;;;;4978037;28;20052;-68
2023/03/01 09:56:24;;;;;;;22.45;18.67;;;15.80;68.00;;;;;;4977866;28;20566;-68
2023/03/01 09:59:04;;;;;;;20.27;16.77;;;16.30;66.00;;;;;;4994185;28;20038;-68
2023/03/01 10:01:36;;;;;;;20.23;17.30;;;16.70;64.40;;;;;;4977591;28;20053;-68
2023/03/01 10:04:25;;;;;;;21.50;18.13;;;17.10;62.70;;;;;;4993746;28;20137;-68
2023/03/01 10:07:09;;;;;;;21.38;15.73;;;17.40;60.90;;;;;;4977534;28;20245;-68
2023/03/01 10:09:41;;;;;;;18.20;14.25;;;17.60;59.70;;;;;;4977504;28;20034;-68
2023/03/01 10:12:32;;;;;;;15.65;13.18;;;17.80;57.70;;;;;;4993967;28;20038;-68
2023/03/01 10:15:07;;;;;;;16.42;12.02;;;17.90;56.40;;;;;;4993710;28;20042;-68
2023/03/01 10:17:35;;;;;;;13.60;11.35;;;18.10;54.90;;;;;;4993593;28;20038;-68
2023/03/01 10:20:18;;;;;;;13.07;9.32;;;18.30;54.40;;;;;;4993939;28;20392;-68
2023/03/01 10:22:50;;;;;;;14.13;9.67;;;18.30;50.80;;;;;;4993768;28;20412;-68
2023/03/01 10:25:20;;;;;;;13.80;10.52;;;18.50;52.30;;;;;;4977182;28;20053;-68
2023/03/01 10:27:51;;;;;;;11.00;7.47;;;18.60;51.60;;;;;;4993145;28;20084;-68
2023/03/01 10:30:20;;;;;;;9.82;8.40;;;18.80;50.10;;;;;;4993217;28;20042;-68
2023/03/01 10:32:51;;;;;;;10.48;8.90;;;18.90;48.60;;;;;;4993026;28;20038;-68
2023/03/01 10:35:23;;;;;;;11.23;8.57;;;19.00;48.30;;;;;;4993197;28;20038;-68
2023/03/01 10:38:02;;;;;;;12.43;9.98;;;19.10;47.60;;;;;;4993127;28;20090;-68
2023/03/01 10:40:28;;;;;;;14.27;10.98;;;19.20;47.90;;;;;;4977178;28;20046;-68
2023/03/01 10:42:56;;;;;;;15.55;12.13;;;19.30;47.80;;;;;;4976795;28;20049;-68
2023/03/01 10:45:38;;;;;;;14.73;11.95;;;19.30;48.00;;;;;;4977037;28;20502;-68
2023/03/01 10:48:13;;;;;;;14.75;11.63;;;19.30;47.40;;;;;;4976525;28;20039;-68
2023/03/01 10:50:41;;;;;;;14.38;11.05;;;19.30;47.80;;;;;;4976811;28;20034;-68
2023/03/01 10:53:36;;;;;;;16.42;11.98;;;19.40;47.20;;;;;;4992852;28;20034;-68
2023/03/01 10:56:13;;;;;;;15.15;10.60;;;19.60;47.90;;;;;;4992816;28;20046;-68
2023/03/01 10:58:59;;;;;;;17.15;11.50;;;19.70;47.20;;;;;;4992793;28;20458;-68
2023/03/01 11:01:24;;;;;;;13.82;11.18;;;19.70;46.60;;;;;;4976578;28;20039;-68
2023/03/01 11:04:17;;;;;;;14.75;11.50;;;19.60;46.30;;;;;;4992927;28;20046;-68
2023/03/01 11:06:43;;;;;;;15.98;11.95;;;19.80;46.70;;;;;;4989532;28;20097;-68
2023/03/01 11:09:20;;;;;;;14.93;12.20;;;19.90;45.40;;;;;;4992711;28;20049;-68
2023/03/01 11:11:51;;;;;;;15.88;12.07;;;19.80;44.80;;;;;;4976980;28;20057;-68
2023/03/01 11:14:21;;;;;;;14.50;11.80;;;19.70;45.20;;;;;;4992877;28;20402;-68
2023/03/01 11:17:03;;;;;;;15.00;12.25;;;19.30;45.20;;;;;;4992523;28;20061;-68
2023/03/01 11:19:33;;;;;;;16.73;12.40;;;19.00;45.20;;;;;;4992647;28;20573;-68
2023/03/01 11:22:07;;;;;;;15.50;11.50;;;18.80;45.90;;;;;;4992586;28;20084;-68
2023/03/01 11:24:46;;;;;;;17.38;13.23;;;18.40;45.60;;;;;;4976257;28;20046;-67
2023/03/01 11:27:19;;;;;;;11.43;10.23;;;17.90;46.00;;;;;;4976124;28;20052;-68
2023/03/01 11:30:05;;;;;;;14.13;11.15;;;17.60;46.20;;;;;;4976548;28;20034;-68
2023/03/01 11:32:40;;;;;;;14.07;11.20;;;17.40;46.90;;;;;;4992488;28;20046;-68
2023/03/01 11:35:24;;;;;;;13.32;10.68;;;17.20;47.10;;;;;;4992425;28;20038;-68
2023/03/01 11:38:09;;;;;;;14.50;10.63;;;17.00;47.40;;;;;;4976184;28;20133;-68
2023/03/01 11:40:40;;;;;;;13.93;10.77;;;17.00;47.40;;;;;;4992660;28;20055;-68
2023/03/01 11:43:14;;;;;;;13.90;10.55;;;17.00;47.80;;;;;;4977292;28;20046;-68
2023/03/01 11:45:57;;;;;;;13.32;10.65;;;16.90;47.80;;;;;;4996409;28;20065;-68
2023/03/01 11:48:42;;;;;;;12.70;9.85;;;16.90;48.10;;;;;;4996839;28;20046;-68
2023/03/01 11:51:23;;;;;;;15.13;10.73;;;17.00;48.10;;;;;;4980116;28;20042;-68
2023/03/01 11:54:15;;;;;;;13.95;10.98;;;16.90;47.60;;;;;;4980465;28;20086;-68
2023/03/01 11:56:54;;;;;;;14.68;10.82;;;16.90;48.10;;;;;;4979982;28;20092;-68
2023/03/01 11:59:34;;;;;;;13.18;11.50;;;16.80;48.70;;;;;;4996378;28;20507;-68
2023/03/01 12:02:21;;;;;;;13.98;11.35;;;16.60;48.90;;;;;;4979883;28;20068;-68
2023/03/01 12:05:06;;;;;;;15.52;11.70;;;16.40;48.80;;;;;;4995907;28;20415;-67
2023/03/01 12:07:37;;;;;;;14.68;10.85;;;16.20;49.10;;;;;;4995887;28;20042;-68
2023/03/01 12:10:17;;;;;;;13.80;11.18;;;16.00;49.30;;;;;;4996186;28;20034;-68
2023/03/01 12:13:08;;;;;;;13.02;10.63;;;16.00;49.20;;;;;;4996013;28;20057;-68
2023/03/01 12:15:47;;;;;;;15.70;12.50;;;16.00;48.80;;;;;;4996062;28;20100;-68
2023/03/01 12:18:31;;;;;;;16.58;12.80;;;15.90;50.20;;;;;;4979593;28;20050;-68
2023/03/01 12:21:30;;;;;;;15.60;12.75;;;16.00;51.00;;;;;;4979511;28;20067;-73
2023/03/01 12:24:33;;;;;;;17.10;13.50;;;16.20;51.60;;;;;;4996877;28;20100;-71
2023/03/01 12:27:11;;;;;;;14.73;12.35;;;16.20;50.40;;;;;;4995489;28;20411;-73
2023/03/01 12:30:18;;;;;;;13.23;10.25;;;16.20;51.30;;;;;;4979600;28;20042;-74
2023/03/01 12:33:06;;;;;;;13.80;9.95;;;16.40;50.60;;;;;;4951785;28;20054;-68
2023/03/01 12:36:12;;;;;;;13.55;11.25;;;16.40;49.20;;;;;;4979147;28;20096;-74
2023/03/01 12:39:08;;;;;;;12.70;11.23;;;16.40;50.40;;;;;;4979590;28;20046;-68
2023/03/01 12:42:01;;;;;;;18.50;11.93;;;16.30;49.90;;;;;;4979227;28;20047;-68
2023/03/01 12:44:45;;;;;;;13.70;10.80;;;16.20;51.00;;;;;;4979350;28;20100;-68
2023/03/01 12:47:32;;;;;;;15.80;11.65;;;16.10;51.00;;;;;;4994963;28;20515;-68